Algona, Washington
Current Conditions -  °F | °C
As of 9:53 AM on Wednesday 28 Jan 2015 (Local Time) from KSEA Reporting Station
Haze Haze  
Wind Chill: 46°   Ceiling: 400
Heat Index: 46°   Visibility: 1.2mi
Dew Point: 44°   Wind: 0mph
Humidity: 93%   Direction: NA
Pressure: 30.39"   Gusts: NA
Location:  47.31°N, 122.266°W
Report Text: KSEA 281753Z 00000KT 1 1/4SM BR OVC004 08/07 A3039 RMK AO2 SFC VIS 6 SLP298 T00780067 10083 20061 53011
Loading
Personal Weather Stations






























Interactive Weather Map New forecast layout! Learn more

10-Day Weather Forecast

Advertisements
Track Severe Weather on mobile